createdAt,value
2022-09-12T00:04:59.123Z,87.41
2022-09-12T00:15:26.395Z,87.89
2022-09-12T00:26:29.950Z,88.76
2022-09-12T00:37:04.606Z,89.12
2022-09-12T00:47:29.836Z,89.97
2022-09-12T00:58:07.649Z,91.45
2022-09-12T01:09:00.743Z,92.36
2022-09-12T01:20:31.504Z,93.31
2022-09-12T01:32:05.102Z,94.51
2022-09-12T01:42:41.998Z,95.35
2022-09-12T01:53:09.755Z,96.36
2022-09-12T02:04:23.834Z,97.29
2022-09-12T02:15:33.466Z,97.59
2022-09-12T02:25:46.065Z,98.10
2022-09-12T02:36:44.280Z,98.78
2022-09-12T02:47:40.951Z,99.53
2022-09-12T02:58:11.849Z,100.00
2022-09-12T03:09:04.442Z,100.00
2022-09-12T03:20:20.290Z,100.00
2022-09-12T03:31:36.310Z,100.00
2022-09-12T03:42:07.000Z,100.00
2022-09-12T03:52:36.803Z,100.00
2022-09-12T04:02:59.120Z,100.00
2022-09-12T04:13:54.518Z,100.00
2022-09-12T04:24:30.766Z,100.00
2022-09-12T04:34:58.169Z,100.00
2022-09-12T04:45:06.423Z,100.00
2022-09-12T04:56:08.356Z,100.00
2022-09-12T05:07:18.631Z,100.00
2022-09-12T05:18:26.934Z,100.00
2022-09-12T05:29:33.912Z,100.00
2022-09-12T05:40:29.720Z,100.00
2022-09-12T05:51:31.942Z,100.00
2022-09-12T06:01:50.693Z,100.00
2022-09-12T06:12:27.917Z,100.00
2022-09-12T06:22:44.927Z,100.00
2022-09-12T06:32:57.149Z,100.00
2022-09-12T06:43:03.261Z,100.00
2022-09-12T06:53:51.036Z,100.00
2022-09-12T07:04:08.756Z,100.00
2022-09-12T07:14:17.343Z,100.00
2022-09-12T07:24:26.304Z,100.00
2022-09-12T07:34:38.424Z,100.00
2022-09-12T07:45:05.541Z,100.00
2022-09-12T07:55:50.407Z,100.00
2022-09-12T08:06:30.511Z,100.00
2022-09-12T08:16:42.757Z,100.00
2022-09-12T08:26:52.391Z,100.00
2022-09-12T08:37:19.948Z,100.00
2022-09-12T08:47:58.438Z,100.00
2022-09-12T08:58:50.831Z,100.00
2022-09-12T09:10:15.252Z,100.00
2022-09-12T09:21:33.000Z,100.00
2022-09-12T09:32:47.838Z,100.00
2022-09-12T09:43:58.373Z,100.00
2022-09-12T09:54:52.323Z,99.96
2022-09-12T10:05:05.447Z,99.85
2022-09-12T10:15:31.596Z,99.08
2022-09-12T10:25:35.062Z,98.24
2022-09-12T10:36:02.303Z,98.08
2022-09-12T10:46:38.126Z,97.82
2022-09-12T10:57:31.366Z,96.76
2022-09-12T11:08:53.696Z,96.11
2022-09-12T11:19:25.853Z,95.15
2022-09-12T11:29:59.476Z,95.38
2022-09-12T11:40:32.065Z,93.70
2022-09-12T11:50:57.942Z,92.94
2022-09-12T12:01:23.328Z,92.66
2022-09-12T12:11:49.268Z,92.18
2022-09-12T12:22:51.332Z,91.59
2022-09-12T12:33:43.278Z,92.04
2022-09-12T12:44:44.790Z,91.56
2022-09-12T12:55:42.478Z,91.52
2022-09-12T13:06:10.488Z,90.62
2022-09-12T13:16:32.524Z,90.20
2022-09-12T13:27:19.382Z,90.32
2022-09-12T13:38:20.907Z,89.63
2022-09-12T13:48:44.692Z,88.90
2022-09-12T13:59:00.483Z,88.72
2022-09-12T14:09:12.990Z,88.25
2022-09-12T14:19:29.574Z,87.16
2022-09-12T14:29:35.294Z,87.11
2022-09-12T14:39:45.710Z,86.17
2022-09-12T14:50:22.382Z,85.11
2022-09-12T15:00:26.514Z,84.91
2022-09-12T15:10:37.844Z,84.14
2022-09-12T15:20:47.973Z,84.13
2022-09-12T15:31:06.003Z,84.24
2022-09-12T15:41:38.280Z,83.82
2022-09-12T15:51:44.569Z,83.90
2022-09-12T16:01:53.158Z,85.80
2022-09-12T16:12:01.757Z,86.20
2022-09-12T16:22:52.762Z,87.62
2022-09-12T16:32:58.934Z,88.61
2022-09-12T16:43:05.416Z,90.27
2022-09-12T16:53:11.679Z,91.56
2022-09-12T17:03:18.028Z,92.89
2022-09-12T17:13:41.130Z,94.30
2022-09-12T17:24:18.501Z,94.48
2022-09-12T17:35:12.484Z,95.04
2022-09-12T17:45:53.339Z,93.94
2022-09-12T17:56:33.131Z,92.34
2022-09-12T18:06:40.034Z,91.78
2022-09-12T18:16:43.891Z,91.49
2022-09-12T18:26:59.300Z,91.35
2022-09-12T18:37:07.997Z,92.25
2022-09-12T18:47:13.862Z,92.92
2022-09-12T18:57:24.619Z,93.53
2022-09-12T19:07:51.863Z,93.67
2022-09-12T19:17:55.587Z,93.79
2022-09-12T19:28:10.083Z,94.51
2022-09-12T19:38:25.192Z,95.11
2022-09-12T19:48:49.625Z,95.54
2022-09-12T19:58:58.465Z,95.31
2022-09-12T20:09:26.957Z,95.90
2022-09-12T20:19:33.638Z,96.39
2022-09-12T20:29:46.479Z,96.16
2022-09-12T20:40:17.814Z,96.13
2022-09-12T20:51:29.735Z,95.47
2022-09-12T21:02:15.027Z,95.25
2022-09-12T21:13:03.772Z,95.24
2022-09-12T21:23:55.822Z,93.81
2022-09-12T21:34:18.466Z,95.58
2022-09-12T21:44:39.370Z,95.56
2022-09-12T21:55:00.689Z,96.60
2022-09-12T22:05:42.935Z,96.39
2022-09-12T22:16:29.833Z,95.90
2022-09-12T22:27:05.690Z,95.93
2022-09-12T22:37:53.589Z,95.76
2022-09-12T22:48:12.876Z,95.98
2022-09-12T22:59:01.255Z,94.96
2022-09-12T23:09:43.721Z,95.33
2022-09-12T23:20:16.276Z,95.34
2022-09-12T23:30:42.433Z,94.01
2022-09-12T23:41:40.615Z,94.00
2022-09-12T23:52:16.246Z,94.80
